sensor_id;sensor_type;location;lat;lon;timestamp;pressure;altitude;pressure_sealevel;temperature;humidity
67840;BME280;54636;51.684;5.142;2022-12-18T00:01:36;102888.88;;;-4.41;100.00
67840;BME280;54636;51.684;5.142;2022-12-18T00:04:06;102870.31;;;-4.41;100.00
67840;BME280;54636;51.684;5.142;2022-12-18T00:06:34;102885.97;;;-4.15;100.00
67840;BME280;54636;51.684;5.142;2022-12-18T00:09:01;102873.47;;;-4.47;100.00
67840;BME280;54636;51.684;5.142;2022-12-18T00:11:29;102882.22;;;-4.47;100.00
67840;BME280;54636;51.684;5.142;2022-12-18T00:13:59;102886.09;;;-4.44;100.00
67840;BME280;54636;51.684;5.142;2022-12-18T00:16:26;102884.78;;;-4.38;100.00
67840;BME280;54636;51.684;5.142;2022-12-18T00:18:53;102878.53;;;-4.54;100.00
67840;BME280;54636;51.684;5.142;2022-12-18T00:21:19;102839.16;;;-4.77;100.00
67840;BME280;54636;51.684;5.142;2022-12-18T00:23:46;102842.13;;;-4.78;100.00
67840;BME280;54636;51.684;5.142;2022-12-18T00:26:14;102845.94;;;-4.88;100.00
67840;BME280;54636;51.684;5.142;2022-12-18T00:28:41;102859.78;;;-4.82;100.00
67840;BME280;54636;51.684;5.142;2022-12-18T00:31:08;102847.50;;;-4.87;100.00
67840;BME280;54636;51.684;5.142;2022-12-18T00:33:35;102852.53;;;-4.73;100.00
67840;BME280;54636;51.684;5.142;2022-12-18T00:36:27;102863.91;;;-4.73;100.00
67840;BME280;54636;51.684;5.142;2022-12-18T00:38:52;102855.69;;;-4.80;100.00
67840;BME280;54636;51.684;5.142;2022-12-18T00:41:21;102861.78;;;-4.79;100.00
67840;BME280;54636;51.684;5.142;2022-12-18T00:44:07;102852.28;;;-4.80;100.00
67840;BME280;54636;51.684;5.142;2022-12-18T00:46:33;102815.69;;;-5.08;100.00
67840;BME280;54636;51.684;5.142;2022-12-18T00:48:59;102838.38;;;-4.98;100.00
67840;BME280;54636;51.684;5.142;2022-12-18T00:51:25;102828.91;;;-5.20;100.00
67840;BME280;54636;51.684;5.142;2022-12-18T00:53:51;102842.00;;;-5.23;100.00
67840;BME280;54636;51.684;5.142;2022-12-18T00:56:17;102840.38;;;-5.37;100.00
67840;BME280;54636;51.684;5.142;2022-12-18T00:58:42;102839.56;;;-5.28;100.00
67840;BME280;54636;51.684;5.142;2022-12-18T01:01:08;102848.41;;;-5.24;100.00
67840;BME280;54636;51.684;5.142;2022-12-18T01:03:34;102827.69;;;-5.52;100.00
67840;BME280;54636;51.684;5.142;2022-12-18T01:06:05;102868.00;;;-5.46;100.00
67840;BME280;54636;51.684;5.142;2022-12-18T01:08:31;102874.25;;;-5.51;100.00
67840;BME280;54636;51.684;5.142;2022-12-18T01:10:56;102869.34;;;-5.32;100.00
67840;BME280;54636;51.684;5.142;2022-12-18T01:13:25;102868.97;;;-5.51;100.00
67840;BME280;54636;51.684;5.142;2022-12-18T01:15:52;102843.06;;;-5.75;100.00
67840;BME280;54636;51.684;5.142;2022-12-18T01:18:18;102853.38;;;-5.82;100.00
67840;BME280;54636;51.684;5.142;2022-12-18T01:20:43;102854.03;;;-5.85;100.00
67840;BME280;54636;51.684;5.142;2022-12-18T01:23:09;102867.81;;;-5.71;100.00
67840;BME280;54636;51.684;5.142;2022-12-18T01:25:38;102840.25;;;-5.90;100.00
67840;BME280;54636;51.684;5.142;2022-12-18T01:28:03;102858.66;;;-5.82;100.00
67840;BME280;54636;51.684;5.142;2022-12-18T01:30:28;102861.31;;;-5.82;100.00
67840;BME280;54636;51.684;5.142;2022-12-18T01:32:54;102868.91;;;-5.72;100.00
67840;BME280;54636;51.684;5.142;2022-12-18T01:35:19;102859.22;;;-5.68;100.00
67840;BME280;54636;51.684;5.142;2022-12-18T01:37:44;102844.59;;;-5.65;100.00
67840;BME280;54636;51.684;5.142;2022-12-18T01:40:10;102872.53;;;-5.47;100.00
67840;BME280;54636;51.684;5.142;2022-12-18T01:42:36;102863.91;;;-5.65;100.00
67840;BME280;54636;51.684;5.142;2022-12-18T01:47:43;102877.09;;;-5.85;100.00
67840;BME280;54636;51.684;5.142;2022-12-18T01:52:50;102864.25;;;-6.04;100.00
67840;BME280;54636;51.684;5.142;2022-12-18T01:55:19;102860.50;;;-6.03;100.00
67840;BME280;54636;51.684;5.142;2022-12-18T01:57:46;102849.97;;;-6.12;100.00
67840;BME280;54636;51.684;5.142;2022-12-18T02:00:18;102843.56;;;-6.02;100.00
67840;BME280;54636;51.684;5.142;2022-12-18T02:02:45;102858.97;;;-6.04;100.00
67840;BME280;54636;51.684;5.142;2022-12-18T02:05:13;102857.13;;;-5.83;100.00
67840;BME280;54636;51.684;5.142;2022-12-18T02:10:33;102837.34;;;-6.06;100.00
67840;BME280;54636;51.684;5.142;2022-12-18T02:18:12;102839.34;;;-6.50;100.00
67840;BME280;54636;51.684;5.142;2022-12-18T02:20:46;102849.75;;;-6.53;100.00
67840;BME280;54636;51.684;5.142;2022-12-18T02:23:42;102846.34;;;-6.54;100.00
67840;BME280;54636;51.684;5.142;2022-12-18T02:29:09;102841.16;;;-6.42;100.00
67840;BME280;54636;51.684;5.142;2022-12-18T02:31:42;102848.78;;;-6.40;100.00
67840;BME280;54636;51.684;5.142;2022-12-18T02:34:09;102838.34;;;-6.37;100.00
67840;BME280;54636;51.684;5.142;2022-12-18T02:36:38;102838.00;;;-6.26;100.00
67840;BME280;54636;51.684;5.142;2022-12-18T02:39:05;102840.03;;;-6.23;100.00
67840;BME280;54636;51.684;5.142;2022-12-18T02:41:32;102838.34;;;-6.37;100.00
67840;BME280;54636;51.684;5.142;2022-12-18T02:44:01;102835.09;;;-6.42;100.00
67840;BME280;54636;51.684;5.142;2022-12-18T02:49:20;102832.81;;;-6.70;100.00
67840;BME280;54636;51.684;5.142;2022-12-18T02:56:55;102836.56;;;-6.88;100.00
67840;BME280;54636;51.684;5.142;2022-12-18T02:59:39;102817.59;;;-6.90;100.00
67840;BME280;54636;51.684;5.142;2022-12-18T03:02:29;102826.31;;;-6.81;100.00
67840;BME280;54636;51.684;5.142;2022-12-18T03:05:10;102818.84;;;-6.70;100.00
67840;BME280;54636;51.684;5.142;2022-12-18T03:07:49;102821.78;;;-6.63;100.00
67840;BME280;54636;51.684;5.142;2022-12-18T03:10:20;102816.34;;;-6.75;100.00
67840;BME280;54636;51.684;5.142;2022-12-18T03:12:53;102813.41;;;-6.74;100.00
67840;BME280;54636;51.684;5.142;2022-12-18T03:15:29;102807.81;;;-6.89;100.00
67840;BME280;54636;51.684;5.142;2022-12-18T03:18:12;102810.91;;;-6.96;100.00
67840;BME280;54636;51.684;5.142;2022-12-18T03:20:40;102806.88;;;-7.11;100.00
67840;BME280;54636;51.684;5.142;2022-12-18T03:23:11;102805.00;;;-7.10;100.00
67840;BME280;54636;51.684;5.142;2022-12-18T03:25:42;102793.06;;;-6.99;100.00
67840;BME280;54636;51.684;5.142;2022-12-18T03:28:15;102798.66;;;-6.92;100.00
67840;BME280;54636;51.684;5.142;2022-12-18T03:30:43;102805.63;;;-6.87;100.00
67840;BME280;54636;51.684;5.142;2022-12-18T03:33:24;102801.75;;;-6.90;100.00
67840;BME280;54636;51.684;5.142;2022-12-18T03:35:51;102803.31;;;-6.98;100.00
67840;BME280;54636;51.684;5.142;2022-12-18T03:38:17;102790.75;;;-7.18;100.00
67840;BME280;54636;51.684;5.142;2022-12-18T03:41:14;102800.06;;;-7.20;100.00
67840;BME280;54636;51.684;5.142;2022-12-18T03:46:52;102788.56;;;-7.16;100.00
67840;BME280;54636;51.684;5.142;2022-12-18T03:51:54;102773.81;;;-7.17;100.00
67840;BME280;54636;51.684;5.142;2022-12-18T03:54:22;102776.59;;;-7.05;100.00
67840;BME280;54636;51.684;5.142;2022-12-18T03:56:58;102771.16;;;-7.00;100.00
67840;BME280;54636;51.684;5.142;2022-12-18T03:59:27;102766.78;;;-7.04;100.00
67840;BME280;54636;51.684;5.142;2022-12-18T04:01:55;102742.28;;;-7.22;100.00
67840;BME280;54636;51.684;5.142;2022-12-18T04:04:24;102745.84;;;-7.26;100.00
67840;BME280;54636;51.684;5.142;2022-12-18T04:06:52;102751.44;;;-7.19;100.00
67840;BME280;54636;51.684;5.142;2022-12-18T04:09:19;102738.84;;;-7.05;100.00
67840;BME280;54636;51.684;5.142;2022-12-18T04:11:46;102723.66;;;-7.17;100.00
67840;BME280;54636;51.684;5.142;2022-12-18T04:14:11;102744.56;;;-6.94;100.00
67840;BME280;54636;51.684;5.142;2022-12-18T04:16:37;102740.81;;;-6.85;100.00
67840;BME280;54636;51.684;5.142;2022-12-18T04:19:03;102755.59;;;-6.92;100.00
67840;BME280;54636;51.684;5.142;2022-12-18T04:21:28;102750.94;;;-7.04;100.00
67840;BME280;54636;51.684;5.142;2022-12-18T04:23:54;102767.56;;;-7.12;100.00
67840;BME280;54636;51.684;5.142;2022-12-18T04:26:19;102762.00;;;-7.28;100.00
67840;BME280;54636;51.684;5.142;2022-12-18T04:28:45;102752.69;;;-7.34;100.00
67840;BME280;54636;51.684;5.142;2022-12-18T04:31:11;102772.56;;;-7.19;100.00
67840;BME280;54636;51.684;5.142;2022-12-18T04:33:36;102773.16;;;-7.05;100.00
67840;BME280;54636;51.684;5.142;2022-12-18T04:36:02;102717.91;;;-7.53;100.00
67840;BME280;54636;51.684;5.142;2022-12-18T04:38:27;102789.03;;;-7.31;100.00
67840;BME280;54636;51.684;5.142;2022-12-18T04:40:53;102771.16;;;-7.51;100.00
67840;BME280;54636;51.684;5.142;2022-12-18T04:43:18;102786.84;;;-7.46;100.00
67840;BME280;54636;51.684;5.142;2022-12-18T04:45:43;102801.25;;;-7.52;100.00
67840;BME280;54636;51.684;5.142;2022-12-18T04:48:09;102742.53;;;-7.92;100.00
67840;BME280;54636;51.684;5.142;2022-12-18T04:50:34;102796.13;;;-7.57;100.00
67840;BME280;54636;51.684;5.142;2022-12-18T04:53:00;102746.69;;;-8.00;100.00
67840;BME280;54636;51.684;5.142;2022-12-18T04:55:26;102804.47;;;-7.73;100.00
67840;BME280;54636;51.684;5.142;2022-12-18T04:57:52;102800.59;;;-7.67;100.00
67840;BME280;54636;51.684;5.142;2022-12-18T05:00:17;102773.75;;;-7.69;100.00
67840;BME280;54636;51.684;5.142;2022-12-18T05:02:42;102774.72;;;-7.39;100.00
67840;BME280;54636;51.684;5.142;2022-12-18T05:05:08;102782.50;;;-7.34;100.00
67840;BME280;54636;51.684;5.142;2022-12-18T05:07:33;102793.84;;;-7.16;100.00
67840;BME280;54636;51.684;5.142;2022-12-18T05:09:59;102774.75;;;-7.30;100.00
67840;BME280;54636;51.684;5.142;2022-12-18T05:12:25;102794.75;;;-7.03;100.00
67840;BME280;54636;51.684;5.142;2022-12-18T05:14:50;102787.63;;;-7.03;100.00
67840;BME280;54636;51.684;5.142;2022-12-18T05:17:16;102789.81;;;-7.22;100.00
67840;BME280;54636;51.684;5.142;2022-12-18T05:19:41;102782.34;;;-7.28;100.00
67840;BME280;54636;51.684;5.142;2022-12-18T05:22:06;102785.63;;;-7.23;100.00
67840;BME280;54636;51.684;5.142;2022-12-18T05:24:32;102793.53;;;-7.32;100.00
67840;BME280;54636;51.684;5.142;2022-12-18T05:26:57;102776.72;;;-7.53;100.00
67840;BME280;54636;51.684;5.142;2022-12-18T05:29:23;102802.97;;;-7.48;100.00
67840;BME280;54636;51.684;5.142;2022-12-18T05:31:48;102793.81;;;-7.50;100.00
67840;BME280;54636;51.684;5.142;2022-12-18T05:34:14;102800.34;;;-7.48;100.00
67840;BME280;54636;51.684;5.142;2022-12-18T05:36:39;102792.13;;;-7.46;100.00
67840;BME280;54636;51.684;5.142;2022-12-18T05:39:04;102800.34;;;-7.39;100.00
67840;BME280;54636;51.684;5.142;2022-12-18T05:41:30;102788.88;;;-7.35;100.00
67840;BME280;54636;51.684;5.142;2022-12-18T05:43:56;102780.00;;;-7.39;100.00
67840;BME280;54636;51.684;5.142;2022-12-18T05:46:21;102774.75;;;-7.21;100.00
67840;BME280;54636;51.684;5.142;2022-12-18T05:48:47;102772.69;;;-7.07;100.00
67840;BME280;54636;51.684;5.142;2022-12-18T05:51:15;102761.38;;;-7.16;100.00
67840;BME280;54636;51.684;5.142;2022-12-18T05:53:42;102765.56;;;-7.07;100.00
67840;BME280;54636;51.684;5.142;2022-12-18T05:56:10;102744.63;;;-7.29;100.00
67840;BME280;54636;51.684;5.142;2022-12-18T05:58:36;102747.22;;;-7.12;100.00
67840;BME280;54636;51.684;5.142;2022-12-18T06:01:13;102753.28;;;-7.11;100.00
67840;BME280;54636;51.684;5.142;2022-12-18T06:03:39;102762.63;;;-7.22;100.00
67840;BME280;54636;51.684;5.142;2022-12-18T06:06:13;102750.66;;;-7.46;100.00
67840;BME280;54636;51.684;5.142;2022-12-18T06:08:39;102774.72;;;-7.39;100.00
67840;BME280;54636;51.684;5.142;2022-12-18T06:11:04;102771.16;;;-7.51;100.00
67840;BME280;54636;51.684;5.142;2022-12-18T06:13:29;102773.47;;;-7.58;100.00
67840;BME280;54636;51.684;5.142;2022-12-18T06:15:55;102773.63;;;-7.55;100.00
67840;BME280;54636;51.684;5.142;2022-12-18T06:18:20;102746.13;;;-7.80;100.00
67840;BME280;54636;51.684;5.142;2022-12-18T06:20:56;102763.03;;;-7.72;100.00
67840;BME280;54636;51.684;5.142;2022-12-18T06:23:22;102761.50;;;-7.82;100.00
67840;BME280;54636;51.684;5.142;2022-12-18T06:25:47;102746.56;;;-7.95;100.00
67840;BME280;54636;51.684;5.142;2022-12-18T06:28:13;102759.91;;;-7.91;100.00
67840;BME280;54636;51.684;5.142;2022-12-18T06:30:38;102765.81;;;-7.86;100.00
67840;BME280;54636;51.684;5.142;2022-12-18T06:33:07;102758.53;;;-7.72;100.00
67840;BME280;54636;51.684;5.142;2022-12-18T06:35:32;102747.56;;;-7.48;100.00
67840;BME280;54636;51.684;5.142;2022-12-18T06:37:57;102746.00;;;-7.49;100.00
67840;BME280;54636;51.684;5.142;2022-12-18T06:40:24;102745.69;;;-7.47;100.00
67840;BME280;54636;51.684;5.142;2022-12-18T06:42:49;102737.94;;;-7.35;100.00
67840;BME280;54636;51.684;5.142;2022-12-18T06:45:15;102734.97;;;-7.16;100.00
67840;BME280;54636;51.684;5.142;2022-12-18T06:47:41;102722.88;;;-7.35;100.00
67840;BME280;54636;51.684;5.142;2022-12-18T06:50:06;102721.47;;;-7.49;100.00
67840;BME280;54636;51.684;5.142;2022-12-18T06:52:33;102736.22;;;-7.48;100.00
67840;BME280;54636;51.684;5.142;2022-12-18T06:54:58;102726.59;;;-7.61;100.00
67840;BME280;54636;51.684;5.142;2022-12-18T06:57:24;102728.16;;;-7.52;100.00
67840;BME280;54636;51.684;5.142;2022-12-18T06:59:49;102715.25;;;-7.53;100.00
67840;BME280;54636;51.684;5.142;2022-12-18T07:02:14;102720.22;;;-7.43;100.00
67840;BME280;54636;51.684;5.142;2022-12-18T07:04:40;102713.69;;;-7.63;100.00
67840;BME280;54636;51.684;5.142;2022-12-18T07:07:05;102709.34;;;-7.50;100.00
67840;BME280;54636;51.684;5.142;2022-12-18T07:09:31;102702.69;;;-7.56;100.00
67840;BME280;54636;51.684;5.142;2022-12-18T07:11:56;102706.72;;;-7.68;100.00
67840;BME280;54636;51.684;5.142;2022-12-18T07:14:22;102706.84;;;-7.73;100.00
67840;BME280;54636;51.684;5.142;2022-12-18T07:16:50;102710.13;;;-7.67;100.00
67840;BME280;54636;51.684;5.142;2022-12-18T07:19:15;102702.50;;;-7.77;100.00
67840;BME280;54636;51.684;5.142;2022-12-18T07:21:41;102690.09;;;-7.68;100.00
67840;BME280;54636;51.684;5.142;2022-12-18T07:24:06;102686.84;;;-7.65;100.00
67840;BME280;54636;51.684;5.142;2022-12-18T07:26:32;102690.72;;;-7.63;100.00
67840;BME280;54636;51.684;5.142;2022-12-18T07:28:57;102684.53;;;-7.58;100.00
67840;BME280;54636;51.684;5.142;2022-12-18T07:31:23;102686.84;;;-7.56;100.00
67840;BME280;54636;51.684;5.142;2022-12-18T07:33:52;102662.78;;;-7.64;100.00
67840;BME280;54636;51.684;5.142;2022-12-18T07:36:19;102670.53;;;-7.33;100.00
67840;BME280;54636;51.684;5.142;2022-12-18T07:38:50;102635.94;;;-7.48;100.00
67840;BME280;54636;51.684;5.142;2022-12-18T07:41:16;102628.78;;;-7.48;100.00
67840;BME280;54636;51.684;5.142;2022-12-18T07:43:43;102602.88;;;-7.54;100.00
67840;BME280;54636;51.684;5.142;2022-12-18T07:46:09;102649.41;;;-7.33;100.00
67840;BME280;54636;51.684;5.142;2022-12-18T07:48:35;102606.25;;;-7.37;100.00
67840;BME280;54636;51.684;5.142;2022-12-18T07:51:02;102578.00;;;-7.36;100.00
67840;BME280;54636;51.684;5.142;2022-12-18T07:53:29;102628.44;;;-7.20;100.00
67840;BME280;54636;51.684;5.142;2022-12-18T07:56:00;102636.84;;;-7.27;100.00
67840;BME280;54636;51.684;5.142;2022-12-18T07:58:26;102597.88;;;-7.39;100.00
67840;BME280;54636;51.684;5.142;2022-12-18T08:00:52;102597.28;;;-7.61;100.00
67840;BME280;54636;51.684;5.142;2022-12-18T08:03:18;102624.13;;;-7.51;100.00
67840;BME280;54636;51.684;5.142;2022-12-18T08:05:44;102641.38;;;-7.53;100.00
67840;BME280;54636;51.684;5.142;2022-12-18T08:08:10;102624.75;;;-7.63;100.00
67840;BME280;54636;51.684;5.142;2022-12-18T08:10:37;102654.84;;;-7.29;100.00
67840;BME280;54636;51.684;5.142;2022-12-18T08:13:02;102633.75;;;-7.38;100.00
67840;BME280;54636;51.684;5.142;2022-12-18T08:15:28;102657.03;;;-7.31;100.00
67840;BME280;54636;51.684;5.142;2022-12-18T08:17:56;102646.78;;;-7.41;100.00
67840;BME280;54636;51.684;5.142;2022-12-18T08:20:22;102636.53;;;-7.25;100.00
67840;BME280;54636;51.684;5.142;2022-12-18T08:22:48;102638.09;;;-7.33;100.00
67840;BME280;54636;51.684;5.142;2022-12-18T08:25:13;102632.47;;;-7.23;100.00
67840;BME280;54636;51.684;5.142;2022-12-18T08:27:39;102652.25;;;-6.82;100.00
67840;BME280;54636;51.684;5.142;2022-12-18T08:30:05;102636.88;;;-6.89;100.00
67840;BME280;54636;51.684;5.142;2022-12-18T08:32:31;102614.53;;;-7.00;100.00
67840;BME280;54636;51.684;5.142;2022-12-18T08:34:58;102651.31;;;-6.86;100.00
67840;BME280;54636;51.684;5.142;2022-12-18T08:37:23;102640.72;;;-6.78;100.00
67840;BME280;54636;51.684;5.142;2022-12-18T08:39:52;102573.31;;;-7.22;100.00
67840;BME280;54636;51.684;5.142;2022-12-18T08:42:17;102617.28;;;-6.88;100.00
67840;BME280;54636;51.684;5.142;2022-12-18T08:45:02;102624.06;;;-6.70;100.00
67840;BME280;54636;51.684;5.142;2022-12-18T08:47:28;102639.06;;;-6.53;100.00
67840;BME280;54636;51.684;5.142;2022-12-18T08:49:53;102639.25;;;-6.58;100.00
67840;BME280;54636;51.684;5.142;2022-12-18T08:52:19;102642.41;;;-6.44;100.00
67840;BME280;54636;51.684;5.142;2022-12-18T08:54:44;102638.50;;;-6.38;100.00
67840;BME280;54636;51.684;5.142;2022-12-18T08:57:11;102639.19;;;-6.20;100.00
67840;BME280;54636;51.684;5.142;2022-12-18T08:59:36;102634.56;;;-6.32;100.00
67840;BME280;54636;51.684;5.142;2022-12-18T09:02:01;102652.66;;;-6.13;100.00
67840;BME280;54636;51.684;5.142;2022-12-18T09:04:27;102662.94;;;-6.11;100.00
67840;BME280;54636;51.684;5.142;2022-12-18T09:06:52;102664.63;;;-6.07;100.00
67840;BME280;54636;51.684;5.142;2022-12-18T09:09:20;102665.75;;;-6.16;100.00
67840;BME280;54636;51.684;5.142;2022-12-18T09:11:46;102680.81;;;-6.08;100.00
67840;BME280;54636;51.684;5.142;2022-12-18T09:14:11;102671.63;;;-6.11;100.00
67840;BME280;54636;51.684;5.142;2022-12-18T09:16:37;102678.88;;;-5.99;100.00
67840;BME280;54636;51.684;5.142;2022-12-18T09:19:03;102676.56;;;-6.01;100.00
67840;BME280;54636;51.684;5.142;2022-12-18T09:21:34;102667.03;;;-5.81;100.00
67840;BME280;54636;51.684;5.142;2022-12-18T09:24:00;102656.44;;;-5.81;100.00
67840;BME280;54636;51.684;5.142;2022-12-18T09:26:27;102653.59;;;-5.55;100.00
67840;BME280;54636;51.684;5.142;2022-12-18T09:28:53;102593.25;;;-5.94;100.00
67840;BME280;54636;51.684;5.142;2022-12-18T09:31:20;102633.44;;;-5.47;100.00
67840;BME280;54636;51.684;5.142;2022-12-18T09:33:46;102606.00;;;-5.43;100.00
67840;BME280;54636;51.684;5.142;2022-12-18T09:36:14;102615.06;;;-5.32;100.00
67840;BME280;54636;51.684;5.142;2022-12-18T09:38:40;102595.22;;;-5.58;100.00
67840;BME280;54636;51.684;5.142;2022-12-18T09:41:19;102623.59;;;-5.26;100.00
67840;BME280;54636;51.684;5.142;2022-12-18T09:43:50;102600.84;;;-5.15;100.00
67840;BME280;54636;51.684;5.142;2022-12-18T09:46:28;102600.88;;;-5.03;100.00
67840;BME280;54636;51.684;5.142;2022-12-18T09:48:59;102595.66;;;-5.11;100.00
67840;BME280;54636;51.684;5.142;2022-12-18T09:51:29;102606.59;;;-5.13;100.00
67840;BME280;54636;51.684;5.142;2022-12-18T09:54:07;102611.78;;;-5.04;100.00
67840;BME280;54636;51.684;5.142;2022-12-18T09:56:41;102629.81;;;-4.98;100.00
67840;BME280;54636;51.684;5.142;2022-12-18T09:59:17;102608.38;;;-5.05;100.00
67840;BME280;54636;51.684;5.142;2022-12-18T10:01:43;102598.66;;;-5.01;100.00
67840;BME280;54636;51.684;5.142;2022-12-18T10:04:08;102615.13;;;-4.83;100.00
67840;BME280;54636;51.684;5.142;2022-12-18T10:12:19;102619.19;;;-4.49;100.00
67840;BME280;54636;51.684;5.142;2022-12-18T10:19:59;102601.72;;;-4.38;100.00
67840;BME280;54636;51.684;5.142;2022-12-18T10:22:35;102589.44;;;-4.18;100.00
67840;BME280;54636;51.684;5.142;2022-12-18T10:25:10;102599.81;;;-4.13;100.00
67840;BME280;54636;51.684;5.142;2022-12-18T10:27:40;102599.25;;;-4.06;100.00
67840;BME280;54636;51.684;5.142;2022-12-18T10:30:16;102577.72;;;-4.17;100.00
67840;BME280;54636;51.684;5.142;2022-12-18T10:32:42;102572.94;;;-3.83;100.00
67840;BME280;54636;51.684;5.142;2022-12-18T10:35:19;102565.03;;;-3.95;100.00
67840;BME280;54636;51.684;5.142;2022-12-18T10:43:26;102557.72;;;-3.71;100.00
67840;BME280;54636;51.684;5.142;2022-12-18T10:48:53;102556.47;;;-3.61;100.00
67840;BME280;54636;51.684;5.142;2022-12-18T10:51:26;102551.41;;;-3.66;100.00
67840;BME280;54636;51.684;5.142;2022-12-18T10:53:59;102547.91;;;-3.54;100.00
67840;BME280;54636;51.684;5.142;2022-12-18T10:56:27;102540.38;;;-3.52;100.00
67840;BME280;54636;51.684;5.142;2022-12-18T10:58:59;102541.31;;;-3.45;100.00
67840;BME280;54636;51.684;5.142;2022-12-18T11:01:25;102539.69;;;-3.49;100.00
67840;BME280;54636;51.684;5.142;2022-12-18T11:06:22;102536.78;;;-3.44;100.00
67840;BME280;54636;51.684;5.142;2022-12-18T11:09:01;102547.44;;;-3.28;100.00
67840;BME280;54636;51.684;5.142;2022-12-18T11:11:27;102547.44;;;-3.28;100.00
67840;BME280;54636;51.684;5.142;2022-12-18T11:14:11;102538.81;;;-3.22;100.00
67840;BME280;54636;51.684;5.142;2022-12-18T11:16:48;102536.00;;;-2.97;100.00
67840;BME280;54636;51.684;5.142;2022-12-18T11:19:33;102533.75;;;-2.95;100.00
67840;BME280;54636;51.684;5.142;2022-12-18T11:22:00;102525.63;;;-3.03;100.00
67840;BME280;54636;51.684;5.142;2022-12-18T11:24:36;102528.00;;;-2.97;100.00
67840;BME280;54636;51.684;5.142;2022-12-18T11:27:04;102514.63;;;-3.01;100.00
67840;BME280;54636;51.684;5.142;2022-12-18T11:29:39;102521.59;;;-2.96;100.00
67840;BME280;54636;51.684;5.142;2022-12-18T11:38:03;102533.13;;;-2.54;100.00
67840;BME280;54636;51.684;5.142;2022-12-18T11:40:36;102520.34;;;-2.68;100.00
67840;BME280;54636;51.684;5.142;2022-12-18T11:43:26;102515.19;;;-2.76;100.00
67840;BME280;54636;51.684;5.142;2022-12-18T11:45:59;102510.88;;;-2.65;100.00
67840;BME280;54636;51.684;5.142;2022-12-18T11:48:30;102518.59;;;-2.60;100.00
67840;BME280;54636;51.684;5.142;2022-12-18T11:51:00;102508.34;;;-2.58;100.00
67840;BME280;54636;51.684;5.142;2022-12-18T11:53:27;102515.94;;;-2.60;100.00
67840;BME280;54636;51.684;5.142;2022-12-18T11:58:34;102494.84;;;-2.49;100.00
67840;BME280;54636;51.684;5.142;2022-12-18T12:06:36;102469.09;;;-2.45;100.00
67840;BME280;54636;51.684;5.142;2022-12-18T12:16:53;102443.38;;;-2.38;100.00
67840;BME280;54636;51.684;5.142;2022-12-18T12:20:02;102455.44;;;-2.24;100.00
67840;BME280;54636;51.684;5.142;2022-12-18T12:22:41;102449.06;;;-2.20;100.00
67840;BME280;54636;51.684;5.142;2022-12-18T12:36:30;102407.72;;;-2.14;99.62
67840;BME280;54636;51.684;5.142;2022-12-18T12:39:01;102412.03;;;-2.06;99.43
67840;BME280;54636;51.684;5.142;2022-12-18T12:41:33;102414.22;;;-1.88;98.49
67840;BME280;54636;51.684;5.142;2022-12-18T12:44:25;102400.22;;;-2.08;99.17
67840;BME280;54636;51.684;5.142;2022-12-18T12:46:56;102399.53;;;-1.79;97.92
67840;BME280;54636;51.684;5.142;2022-12-18T12:49:27;102379.53;;;-1.92;97.27
67840;BME280;54636;51.684;5.142;2022-12-18T12:52:00;102402.72;;;-1.92;96.64
67840;BME280;54636;51.684;5.142;2022-12-18T12:54:32;102381.81;;;-2.17;98.81
67840;BME280;54636;51.684;5.142;2022-12-18T13:02:23;102394.59;;;-2.03;100.00
67840;BME280;54636;51.684;5.142;2022-12-18T13:07:49;102393.09;;;-2.01;100.00
67840;BME280;54636;51.684;5.142;2022-12-18T13:13:07;102384.84;;;-1.92;100.00
67840;BME280;54636;51.684;5.142;2022-12-18T13:15:41;102386.50;;;-1.84;98.82
67840;BME280;54636;51.684;5.142;2022-12-18T13:23:00;102390.19;;;-1.92;99.84
67840;BME280;54636;51.684;5.142;2022-12-18T13:25:36;102385.97;;;-1.93;99.65
67840;BME280;54636;51.684;5.142;2022-12-18T13:36:01;102367.88;;;-1.84;98.49
67840;BME280;54636;51.684;5.142;2022-12-18T13:38:38;102360.94;;;-1.88;99.15
67840;BME280;54636;51.684;5.142;2022-12-18T13:43:47;102362.84;;;-1.89;99.11
67840;BME280;54636;51.684;5.142;2022-12-18T13:51:35;102334.13;;;-2.03;100.00
67840;BME280;54636;51.684;5.142;2022-12-18T13:54:03;102330.75;;;-2.00;99.99
67840;BME280;54636;51.684;5.142;2022-12-18T13:56:32;102331.25;;;-1.90;100.00
67840;BME280;54636;51.684;5.142;2022-12-18T14:01:55;102344.72;;;-1.80;99.33
67840;BME280;54636;51.684;5.142;2022-12-18T14:04:26;102344.66;;;-1.83;98.62
67840;BME280;54636;51.684;5.142;2022-12-18T14:06:53;102341.91;;;-1.64;97.88
67840;BME280;54636;51.684;5.142;2022-12-18T14:09:25;102339.09;;;-1.75;96.88
67840;BME280;54636;51.684;5.142;2022-12-18T14:11:51;102330.22;;;-1.82;98.05
67840;BME280;54636;51.684;5.142;2022-12-18T14:14:18;102342.13;;;-1.76;98.04
67840;BME280;54636;51.684;5.142;2022-12-18T14:16:45;102332.28;;;-1.72;98.18
67840;BME280;54636;51.684;5.142;2022-12-18T14:19:16;102329.88;;;-1.81;97.48
67840;BME280;54636;51.684;5.142;2022-12-18T14:21:47;102333.94;;;-1.64;97.71
67840;BME280;54636;51.684;5.142;2022-12-18T14:24:16;102347.44;;;-1.76;97.69
67840;BME280;54636;51.684;5.142;2022-12-18T14:26:43;102336.59;;;-1.64;97.13
67840;BME280;54636;51.684;5.142;2022-12-18T14:29:21;102344.41;;;-1.75;97.99
67840;BME280;54636;51.684;5.142;2022-12-18T14:32:13;102333.56;;;-1.62;97.47
67840;BME280;54636;51.684;5.142;2022-12-18T14:34:43;102331.22;;;-1.68;97.74
67840;BME280;54636;51.684;5.142;2022-12-18T14:37:13;102328.44;;;-1.48;95.82
67840;BME280;54636;51.684;5.142;2022-12-18T14:39:39;102323.22;;;-1.68;97.05
67840;BME280;54636;51.684;5.142;2022-12-18T14:42:05;102314.25;;;-1.82;98.25
67840;BME280;54636;51.684;5.142;2022-12-18T14:44:30;102329.63;;;-1.72;97.73
67840;BME280;54636;51.684;5.142;2022-12-18T14:46:56;102326.09;;;-1.80;98.95
67840;BME280;54636;51.684;5.142;2022-12-18T14:49:29;102324.81;;;-1.63;97.11